Time;durP1;ratioP1;P1;durP2;ratioP2;P2;SDS_P1;SDS_P2;PMS_P1;PMS_P2;Temp;Humidity;BMP_temperature;BMP_pressure;BME280_temperature;BME280_humidity;BME280_pressure;Samples;Min_cycle;Max_cycle;Signal;HPM_P1;HPM_P2
2022/10/14 00:00:18;;;;;;;3.78;3.47;;;11.20;99.90;;;;;;4892550;29;19919;-71
2022/10/14 00:02:44;;;;;;;3.60;3.30;;;12.00;99.90;;;;;;4890195;29;20075;-71
2022/10/14 00:05:10;;;;;;;2.58;2.38;;;12.00;99.90;;;;;;4890546;29;20463;-71
2022/10/14 00:07:36;;;;;;;2.05;1.85;;;12.00;99.90;;;;;;4878427;29;20063;-71
2022/10/14 00:10:04;;;;;;;2.30;2.10;;;11.80;99.90;;;;;;4878699;29;20071;-71
2022/10/14 00:12:30;;;;;;;2.60;2.40;;;11.10;99.90;;;;;;4897561;29;20054;-72
2022/10/14 00:14:55;;;;;;;3.60;3.30;;;11.30;99.90;;;;;;4895449;29;20052;-71
2022/10/14 00:17:21;;;;;;;3.45;3.15;;;10.90;99.90;;;;;;4896894;29;20076;-71
2022/10/14 00:19:47;;;;;;;3.63;3.33;;;10.80;99.90;;;;;;4880440;29;20036;-71
2022/10/14 00:22:13;;;;;;;3.30;3.00;;;11.50;99.90;;;;;;4882146;29;20055;-71
2022/10/14 00:24:38;;;;;;;3.35;3.05;;;11.40;99.90;;;;;;4879209;29;20400;-71
2022/10/14 00:27:04;;;;;;;3.17;2.90;;;11.50;99.90;;;;;;4896122;29;20048;-71
2022/10/14 00:29:30;;;;;;;2.20;2.00;;;10.60;99.90;;;;;;4881049;29;20052;-71
2022/10/14 00:31:55;;;;;;;1.80;1.70;;;11.00;99.90;;;;;;4895594;29;20048;-71
2022/10/14 00:34:21;;;;;;;1.45;1.30;;;11.00;99.90;;;;;;4896454;29;20071;-71
2022/10/14 00:36:47;;;;;;;1.20;1.10;;;11.00;99.90;;;;;;4880147;29;20096;-71
2022/10/14 00:39:12;;;;;;;1.55;1.45;;;11.50;99.90;;;;;;4895831;29;20040;-71
2022/10/14 00:41:39;;;;;;;1.60;1.50;;;11.40;99.90;;;;;;4896340;29;20111;-71
2022/10/14 00:44:07;;;;;;;2.05;1.83;;;10.70;99.90;;;;;;4896214;29;20051;-71
2022/10/14 00:46:38;;;;;;;1.50;1.40;;;10.60;99.90;;;;;;4894248;29;20048;-71
2022/10/14 00:49:14;;;;;;;1.55;1.45;;;11.50;99.90;;;;;;4896769;29;20045;-71
2022/10/14 00:51:43;;;;;;;2.10;1.90;;;11.30;99.90;;;;;;4896871;29;20072;-71
2022/10/14 00:54:12;;;;;;;1.70;1.60;;;10.80;99.90;;;;;;4895247;29;20036;-71
2022/10/14 00:56:38;;;;;;;1.40;1.30;;;10.80;99.90;;;;;;4879437;29;20125;-71
2022/10/14 00:59:05;;;;;;;1.67;1.55;;;10.70;99.90;;;;;;4908965;29;20127;-71
2022/10/14 01:01:31;;;;;;;2.10;1.90;;;11.30;99.90;;;;;;4881311;29;20052;-71
2022/10/14 01:03:57;;;;;;;2.15;1.95;;;11.30;99.90;;;;;;4894850;29;20496;-71
2022/10/14 01:06:47;;;;;;;1.90;1.80;;;10.30;99.90;;;;;;4895329;29;20048;-71
2022/10/14 01:09:32;;;;;;;1.70;1.60;;;10.30;99.90;;;;;;4895770;29;20045;-71
2022/10/14 01:12:32;;;;;;;1.52;1.42;;;10.40;99.90;;;;;;4895284;29;20048;-71
2022/10/14 01:15:13;;;;;;;1.70;1.50;;;10.40;99.90;;;;;;4893812;29;20069;-71
2022/10/14 01:17:49;;;;;;;1.25;1.15;;;10.50;99.90;;;;;;4895412;29;20040;-71
2022/10/14 01:20:31;;;;;;;1.27;1.17;;;10.40;99.90;;;;;;4895389;29;20745;-71
2022/10/14 01:23:24;;;;;;;0.98;0.90;;;11.10;99.90;;;;;;4889400;29;20312;-71
2022/10/14 01:26:06;;;;;;;1.30;1.20;;;10.40;99.90;;;;;;4877821;29;20052;-71
2022/10/14 01:28:50;;;;;;;1.25;1.15;;;11.00;99.90;;;;;;4892700;29;20371;-71
2022/10/14 01:31:22;;;;;;;1.30;1.20;;;11.10;99.90;;;;;;4894023;29;20041;-71
2022/10/14 01:33:53;;;;;;;1.20;1.10;;;10.30;99.90;;;;;;4895278;29;20052;-71
2022/10/14 01:36:31;;;;;;;1.15;1.05;;;11.00;99.90;;;;;;4894465;29;20104;-71
2022/10/14 01:39:01;;;;;;;1.17;1.08;;;10.90;99.90;;;;;;4895494;29;20068;-70
2022/10/14 01:41:38;;;;;;;1.40;1.30;;;11.00;99.90;;;;;;4888506;29;20048;-71
2022/10/14 01:44:09;;;;;;;1.27;1.13;;;10.20;99.90;;;;;;4894040;29;20492;-72
2022/10/14 01:46:38;;;;;;;1.13;1.02;;;10.30;99.90;;;;;;4894534;29;20778;-73
2022/10/14 01:49:09;;;;;;;1.08;0.98;;;11.00;99.90;;;;;;4895167;29;20128;-72
2022/10/14 01:51:44;;;;;;;1.05;0.93;;;10.00;99.90;;;;;;4894828;29;20112;-72
2022/10/14 01:54:16;;;;;;;1.05;0.90;;;11.00;99.90;;;;;;4896394;29;20413;-72
2022/10/14 01:56:45;;;;;;;1.45;1.30;;;10.40;99.90;;;;;;4894273;29;20080;-72
2022/10/14 01:59:13;;;;;;;1.20;1.10;;;10.80;99.90;;;;;;4879357;29;20350;-71
2022/10/14 02:01:39;;;;;;;1.50;1.40;;;10.00;99.90;;;;;;4879287;29;20048;-72
2022/10/14 02:04:16;;;;;;;1.60;1.42;;;11.00;99.90;;;;;;4894089;29;20139;-71
2022/10/14 02:06:51;;;;;;;1.30;1.20;;;10.90;99.90;;;;;;4886342;29;20072;-71
2022/10/14 02:09:22;;;;;;;1.75;1.33;;;9.90;99.90;;;;;;4895367;29;20040;-72
2022/10/14 02:12:26;;;;;;;1.27;1.17;;;10.40;99.90;;;;;;4878247;29;20501;-72
2022/10/14 02:15:28;;;;;;;1.20;1.10;;;10.90;99.90;;;;;;4886026;29;20044;-72
2022/10/14 02:18:11;;;;;;;1.33;1.23;;;9.90;99.90;;;;;;4878924;29;20227;-71
2022/10/14 02:20:47;;;;;;;1.17;1.08;;;11.00;99.90;;;;;;4892338;29;20095;-71
2022/10/14 02:23:17;;;;;;;1.25;1.15;;;10.90;99.90;;;;;;4878669;29;20552;-71
2022/10/14 02:25:46;;;;;;;1.40;1.30;;;10.40;99.90;;;;;;4895469;29;20048;-72
2022/10/14 02:28:16;;;;;;;1.27;1.17;;;10.00;99.90;;;;;;4893897;29;20040;-71
2022/10/14 02:30:47;;;;;;;1.20;1.10;;;10.80;99.90;;;;;;4892461;29;20456;-71
2022/10/14 02:33:13;;;;;;;1.15;1.05;;;10.70;99.90;;;;;;4893545;29;20064;-71
2022/10/14 02:35:41;;;;;;;0.70;0.70;;;9.70;99.90;;;;;;4902542;29;20520;-71
2022/10/14 02:38:07;;;;;;;0.80;0.80;;;9.90;99.90;;;;;;4882711;29;20051;-71
2022/10/14 02:40:38;;;;;;;0.70;0.70;;;10.10;99.90;;;;;;4879537;29;20048;-71
2022/10/14 02:43:06;;;;;;;0.70;0.70;;;10.80;99.90;;;;;;4897489;29;20404;-71
2022/10/14 02:45:33;;;;;;;0.85;0.85;;;10.20;99.90;;;;;;4896902;29;20055;-71
2022/10/14 02:47:59;;;;;;;0.70;0.70;;;9.70;99.90;;;;;;4895851;29;20054;-71
2022/10/14 02:50:24;;;;;;;0.60;0.60;;;10.80;99.90;;;;;;4874715;29;20036;-77
2022/10/14 02:52:50;;;;;;;0.60;0.60;;;10.40;99.90;;;;;;4882216;29;20488;-77
2022/10/14 02:55:16;;;;;;;0.80;0.80;;;10.80;99.90;;;;;;4898075;29;20052;-77
2022/10/14 02:57:41;;;;;;;0.50;0.50;;;10.00;99.90;;;;;;4880698;29;20115;-76
2022/10/14 03:00:08;;;;;;;0.73;0.73;;;10.60;99.90;;;;;;4896906;29;20052;-77
2022/10/14 03:02:33;;;;;;;0.80;0.80;;;10.80;99.90;;;;;;4896844;29;20111;-77
2022/10/14 03:04:59;;;;;;;0.90;0.90;;;10.30;99.90;;;;;;4880269;29;20052;-77
2022/10/14 03:07:25;;;;;;;0.77;0.77;;;10.70;99.90;;;;;;4908318;29;20130;-77
2022/10/14 03:09:51;;;;;;;0.50;0.50;;;9.60;99.90;;;;;;4910018;29;20135;-77
2022/10/14 03:12:17;;;;;;;;;;;10.20;99.90;;;;;;4911979;29;20058;-76
2022/10/14 03:14:42;;;;;;;0.77;0.77;;;10.50;99.90;;;;;;4916530;29;19959;-77
2022/10/14 03:17:09;;;;;;;0.70;0.70;;;9.60;99.90;;;;;;4916639;29;20062;-77
2022/10/14 03:19:34;;;;;;;0.65;0.60;;;10.70;99.90;;;;;;4912073;29;20127;-77
2022/10/14 03:22:00;;;;;;;0.73;0.73;;;10.40;99.90;;;;;;4894917;29;20044;-77
2022/10/14 03:24:26;;;;;;;1.20;1.10;;;10.20;99.90;;;;;;4870815;29;20480;-76
2022/10/14 03:26:51;;;;;;;0.90;0.90;;;9.60;99.90;;;;;;4893848;29;20043;-77
2022/10/14 03:29:17;;;;;;;0.73;0.70;;;9.60;99.90;;;;;;4895214;29;20044;-76
2022/10/14 03:31:43;;;;;;;0.70;0.70;;;9.60;99.90;;;;;;4897785;29;20508;-77
2022/10/14 03:34:09;;;;;;;0.60;0.60;;;9.40;99.90;;;;;;4896557;29;20468;-77
2022/10/14 03:36:34;;;;;;;0.70;0.70;;;9.50;99.90;;;;;;4894613;29;20120;-77
2022/10/14 03:39:00;;;;;;;0.70;0.70;;;10.60;99.90;;;;;;4895913;29;20472;-77
2022/10/14 03:41:26;;;;;;;0.57;0.57;;;10.70;99.90;;;;;;4892844;29;20476;-77
2022/10/14 03:43:51;;;;;;;0.50;0.50;;;9.40;99.90;;;;;;4895213;29;20676;-77
2022/10/14 03:46:17;;;;;;;0.50;0.50;;;10.20;99.90;;;;;;4914504;29;20044;-77
2022/10/14 03:48:43;;;;;;;0.60;0.60;;;9.40;99.90;;;;;;4897460;29;20036;-77
2022/10/14 03:51:09;;;;;;;0.50;0.50;;;10.70;99.90;;;;;;4881197;29;20115;-77
2022/10/14 03:53:34;;;;;;;0.60;0.60;;;9.70;99.90;;;;;;4906486;29;20074;-77
2022/10/14 03:56:00;;;;;;;0.50;0.50;;;9.70;99.90;;;;;;4916277;29;20043;-77
2022/10/14 03:58:26;;;;;;;0.52;0.52;;;10.40;99.90;;;;;;4905998;29;20048;-77
2022/10/14 04:00:51;;;;;;;0.75;0.75;;;10.70;99.90;;;;;;4904049;29;20070;-77
2022/10/14 04:03:17;;;;;;;0.60;0.60;;;9.50;99.90;;;;;;4895539;29;20143;-77
2022/10/14 04:05:43;;;;;;;0.70;0.70;;;9.50;99.90;;;;;;4894000;29;20377;-77
2022/10/14 04:08:08;;;;;;;0.95;0.85;;;10.80;99.90;;;;;;4897453;29;20129;-77
2022/10/14 04:10:34;;;;;;;0.70;0.70;;;10.70;99.90;;;;;;4895396;29;20498;-77
2022/10/14 04:13:00;;;;;;;0.80;0.80;;;10.70;99.90;;;;;;4893982;29;20047;-77
2022/10/14 04:15:26;;;;;;;0.98;0.90;;;10.40;99.90;;;;;;4899312;29;20048;-77
2022/10/14 04:17:52;;;;;;;1.42;1.33;;;9.50;99.90;;;;;;4915916;29;20131;-77
2022/10/14 04:20:18;;;;;;;1.60;1.50;;;10.50;99.90;;;;;;4883975;29;20048;-76
2022/10/14 04:22:44;;;;;;;1.63;1.52;;;9.80;99.90;;;;;;4895363;29;20055;-77
2022/10/14 04:25:10;;;;;;;2.00;1.80;;;10.90;99.90;;;;;;4896321;29;20083;-77
2022/10/14 04:27:36;;;;;;;1.80;1.70;;;9.60;99.90;;;;;;4911602;29;20083;-77
2022/10/14 04:30:01;;;;;;;1.55;1.45;;;10.40;99.90;;;;;;4915494;29;20047;-78
2022/10/14 04:32:27;;;;;;;1.65;1.55;;;9.60;99.90;;;;;;4883159;29;20101;-76
2022/10/14 04:34:53;;;;;;;1.80;1.70;;;10.70;99.90;;;;;;4895921;29;20518;-76
2022/10/14 04:37:19;;;;;;;;;;;9.60;99.90;;;;;;4894161;29;20053;-76
2022/10/14 04:39:45;;;;;;;1.73;1.63;;;10.20;99.90;;;;;;4893682;29;20446;-76
2022/10/14 04:42:10;;;;;;;1.50;1.40;;;10.90;99.90;;;;;;4883329;29;20068;-76
2022/10/14 04:44:36;;;;;;;1.65;1.55;;;10.70;99.90;;;;;;4874743;29;20493;-76
2022/10/14 04:47:02;;;;;;;2.08;1.83;;;10.90;99.90;;;;;;4875580;29;20048;-76
2022/10/14 04:49:27;;;;;;;1.55;1.45;;;10.90;99.90;;;;;;4875824;29;20049;-77
2022/10/14 04:51:53;;;;;;;1.48;1.38;;;10.70;99.90;;;;;;4869154;29;20079;-77
2022/10/14 04:54:19;;;;;;;1.40;1.30;;;10.90;99.90;;;;;;4884270;29;20053;-76
2022/10/14 04:56:45;;;;;;;1.30;1.20;;;9.70;99.90;;;;;;4886944;29;20120;-77
2022/10/14 04:59:12;;;;;;;1.20;1.10;;;10.00;99.90;;;;;;4901919;29;20052;-76
2022/10/14 05:01:38;;;;;;;1.17;1.00;;;10.90;99.90;;;;;;4887386;29;20041;-77
2022/10/14 05:04:04;;;;;;;0.95;0.88;;;10.00;99.90;;;;;;4872420;29;21208;-76
2022/10/14 05:06:29;;;;;;;0.80;0.80;;;9.50;99.90;;;;;;4890059;29;20144;-77
2022/10/14 05:08:55;;;;;;;1.10;1.00;;;10.90;99.90;;;;;;4879599;29;20552;-77
2022/10/14 05:11:21;;;;;;;1.00;0.90;;;9.50;99.90;;;;;;4896150;29;20156;-76
2022/10/14 05:13:47;;;;;;;0.93;0.82;;;10.60;99.90;;;;;;4894397;29;20512;-76
2022/10/14 05:16:12;;;;;;;2.17;1.48;;;10.80;99.90;;;;;;4891257;29;20400;-76
2022/10/14 05:18:38;;;;;;;1.55;1.40;;;9.50;99.90;;;;;;4880526;29;20048;-76
2022/10/14 05:21:04;;;;;;;1.38;1.20;;;9.50;99.90;;;;;;4878056;29;20060;-80
2022/10/14 05:23:30;;;;;;;1.08;0.98;;;10.40;99.90;;;;;;4878359;29;20048;-76
2022/10/14 05:25:55;;;;;;;1.27;1.05;;;10.50;99.90;;;;;;4894195;29;20548;-77
2022/10/14 05:28:21;;;;;;;1.40;1.30;;;10.80;99.90;;;;;;4894405;29;20048;-76
2022/10/14 05:30:47;;;;;;;1.50;1.30;;;10.80;99.90;;;;;;4885959;29;20056;-76
2022/10/14 05:33:13;;;;;;;1.25;1.08;;;9.40;99.90;;;;;;4893295;29;20739;-76
2022/10/14 05:35:38;;;;;;;1.10;1.00;;;10.10;99.90;;;;;;4891022;29;20048;-76
2022/10/14 05:38:04;;;;;;;1.48;1.02;;;10.50;99.90;;;;;;4896921;29;20483;-76
2022/10/14 05:40:30;;;;;;;1.55;1.30;;;10.50;99.90;;;;;;4897022;29;20096;-77
2022/10/14 05:42:55;;;;;;;1.45;1.17;;;9.40;99.90;;;;;;4898747;29;20111;-77
2022/10/14 05:45:22;;;;;;;1.30;1.05;;;10.40;99.90;;;;;;4894759;29;20051;-78
2022/10/14 05:47:47;;;;;;;1.30;1.20;;;9.40;99.90;;;;;;4900693;29;20048;-77
2022/10/14 05:50:13;;;;;;;1.80;1.35;;;9.50;99.90;;;;;;4883486;29;20059;-77
2022/10/14 05:52:39;;;;;;;2.05;1.67;;;10.30;99.90;;;;;;4899679;29;20052;-81
2022/10/14 05:55:07;;;;;;;1.90;1.70;;;10.90;99.90;;;;;;4898677;29;20052;-78
2022/10/14 05:57:33;;;;;;;3.33;1.83;;;10.40;99.90;;;;;;4883794;29;20571;-77
2022/10/14 05:59:59;;;;;;;2.42;1.92;;;10.80;99.90;;;;;;4881101;29;20160;-78
2022/10/14 06:02:25;;;;;;;2.40;1.80;;;9.50;99.90;;;;;;4882783;29;20092;-78
2022/10/14 06:04:51;;;;;;;2.30;1.80;;;10.90;99.90;;;;;;4897403;29;20095;-77
2022/10/14 06:07:16;;;;;;;1.83;1.52;;;10.60;99.90;;;;;;4881233;29;20055;-78
2022/10/14 06:09:42;;;;;;;1.83;1.60;;;10.90;99.90;;;;;;4899120;29;20051;-77
2022/10/14 06:12:08;;;;;;;2.55;1.90;;;10.60;99.90;;;;;;4881248;29;20100;-77
2022/10/14 06:14:35;;;;;;;3.17;2.40;;;9.50;99.90;;;;;;4914151;29;20492;-78
2022/10/14 06:17:01;;;;;;;2.50;2.03;;;9.60;99.90;;;;;;4898397;29;20051;-78
2022/10/14 06:19:27;;;;;;;2.83;2.08;;;10.80;99.90;;;;;;4925027;29;20054;-78
2022/10/14 06:21:53;;;;;;;2.20;1.80;;;9.90;99.90;;;;;;4913243;29;20130;-77
2022/10/14 06:24:18;;;;;;;2.25;1.70;;;11.00;99.90;;;;;;4910112;29;20032;-78
2022/10/14 06:26:44;;;;;;;2.42;1.83;;;9.70;99.90;;;;;;4889572;29;20044;-79
2022/10/14 06:29:10;;;;;;;2.55;2.10;;;9.60;99.90;;;;;;4897479;29;20048;-78
2022/10/14 06:31:36;;;;;;;3.33;2.63;;;9.60;99.90;;;;;;4901691;29;20051;-78
2022/10/14 06:34:04;;;;;;;3.45;2.50;;;11.00;99.90;;;;;;4904589;29;20112;-78
2022/10/14 06:36:30;;;;;;;3.78;2.90;;;10.80;99.90;;;;;;4896053;29;20044;-78
2022/10/14 06:38:56;;;;;;;4.22;2.95;;;11.00;99.90;;;;;;4858289;29;20373;-78
2022/10/14 06:41:22;;;;;;;2.75;2.13;;;11.10;99.90;;;;;;4894662;29;20098;-77
2022/10/14 06:43:47;;;;;;;4.78;3.00;;;10.70;99.90;;;;;;4893367;29;20565;-78
2022/10/14 06:46:13;;;;;;;4.65;3.20;;;10.80;99.90;;;;;;4901172;29;20059;-78
2022/10/14 06:48:38;;;;;;;4.38;3.30;;;10.20;99.90;;;;;;4878173;29;20048;-78
2022/10/14 06:51:04;;;;;;;4.00;2.95;;;10.10;99.90;;;;;;4893182;29;20044;-78
2022/10/14 06:53:30;;;;;;;3.90;2.95;;;10.90;99.90;;;;;;4895323;29;20436;-78
2022/10/14 06:55:57;;;;;;;3.70;2.70;;;9.90;99.90;;;;;;4892160;29;20459;-78
2022/10/14 06:58:23;;;;;;;4.72;3.10;;;10.90;99.90;;;;;;4894822;29;20453;-78
2022/10/14 07:00:49;;;;;;;3.47;2.75;;;10.50;99.90;;;;;;4877258;29;20044;-78
2022/10/14 07:03:14;;;;;;;4.93;3.28;;;11.30;99.90;;;;;;4890824;29;20051;-78
2022/10/14 07:05:40;;;;;;;4.25;2.88;;;11.50;99.90;;;;;;4894309;29;20051;-78
2022/10/14 07:08:06;;;;;;;3.83;2.70;;;10.00;99.90;;;;;;4877980;29;20472;-78
2022/10/14 07:10:31;;;;;;;3.60;2.50;;;10.20;99.90;;;;;;4862248;29;20048;-78
2022/10/14 07:12:57;;;;;;;2.88;2.10;;;10.10;99.90;;;;;;4894704;29;20053;-78
2022/10/14 07:15:23;;;;;;;3.60;2.33;;;10.50;99.90;;;;;;4911866;29;20044;-78
2022/10/14 07:17:48;;;;;;;4.85;2.90;;;11.50;99.90;;;;;;4896076;29;20048;-78
2022/10/14 07:20:14;;;;;;;4.88;3.10;;;11.00;99.90;;;;;;4891478;29;20056;-77
2022/10/14 07:22:40;;;;;;;4.10;2.70;;;11.10;99.90;;;;;;4878070;29;20100;-78
2022/10/14 07:25:06;;;;;;;4.20;2.80;;;11.30;99.90;;;;;;4893776;29;20101;-78
2022/10/14 07:27:32;;;;;;;4.03;2.85;;;11.40;99.90;;;;;;4877492;29;20180;-77
2022/10/14 07:29:57;;;;;;;4.57;3.30;;;11.30;99.90;;;;;;4893330;29;20123;-78
2022/10/14 07:32:23;;;;;;;4.45;2.83;;;11.60;99.90;;;;;;4878694;29;20476;-77
2022/10/14 07:34:50;;;;;;;4.30;2.88;;;10.10;99.90;;;;;;4878117;29;20526;-76
2022/10/14 07:37:16;;;;;;;3.38;2.10;;;11.60;99.90;;;;;;4893427;29;20115;-77
2022/10/14 07:39:42;;;;;;;3.65;2.00;;;10.20;99.90;;;;;;4893459;29;20127;-76
2022/10/14 07:42:07;;;;;;;2.95;1.92;;;10.40;99.90;;;;;;4896842;29;20139;-76
2022/10/14 07:44:33;;;;;;;3.95;2.40;;;11.30;99.90;;;;;;4892531;29;20083;-76
2022/10/14 07:47:00;;;;;;;4.30;2.63;;;11.50;99.90;;;;;;4895423;29;20048;-76
2022/10/14 07:49:26;;;;;;;4.13;2.40;;;11.20;99.90;;;;;;4892156;29;20417;-76
2022/10/14 07:51:51;;;;;;;3.25;2.03;;;11.40;99.90;;;;;;4893338;29;20044;-78
2022/10/14 07:54:23;;;;;;;4.10;2.58;;;11.80;99.90;;;;;;4892408;29;20556;-77
2022/10/14 07:56:49;;;;;;;4.93;3.08;;;10.50;99.90;;;;;;4894457;29;20388;-77
2022/10/14 07:59:17;;;;;;;4.78;2.65;;;10.90;99.90;;;;;;4893111;29;20048;-77
2022/10/14 08:01:48;;;;;;;5.03;3.08;;;11.70;99.90;;;;;;4892932;29;20063;-77
2022/10/14 08:04:14;;;;;;;4.82;3.00;;;11.60;99.90;;;;;;4892502;29;20123;-77
2022/10/14 08:06:41;;;;;;;5.70;3.35;;;11.80;99.90;;;;;;4892304;29;20051;-78
2022/10/14 08:09:08;;;;;;;4.75;2.85;;;10.90;99.90;;;;;;4893514;29;20040;-77
2022/10/14 08:11:34;;;;;;;5.03;3.00;;;10.60;99.90;;;;;;4888349;29;20044;-77
2022/10/14 08:14:00;;;;;;;5.95;3.70;;;12.00;99.90;;;;;;4892358;29;20043;-77
2022/10/14 08:16:28;;;;;;;5.32;3.15;;;10.50;99.90;;;;;;4891610;29;20045;-76
2022/10/14 08:18:56;;;;;;;4.32;2.80;;;11.60;99.90;;;;;;4891985;29;20051;-76
2022/10/14 08:21:22;;;;;;;6.40;3.65;;;10.70;99.90;;;;;;4889915;29;20060;-77
2022/10/14 08:23:48;;;;;;;6.07;3.58;;;11.00;99.90;;;;;;4892646;29;20425;-76
2022/10/14 08:26:24;;;;;;;5.32;3.22;;;11.40;99.90;;;;;;4874982;29;20176;-76
2022/10/14 08:28:50;;;;;;;4.03;2.30;;;12.00;99.90;;;;;;4878993;29;20055;-77
2022/10/14 08:31:16;;;;;;;5.40;2.95;;;10.80;99.90;;;;;;4861718;29;20053;-77
2022/10/14 08:33:42;;;;;;;4.15;2.40;;;10.80;99.90;;;;;;4879134;29;20077;-77
2022/10/14 08:36:08;;;;;;;5.15;2.92;;;11.20;99.90;;;;;;4895219;29;20088;-77
2022/10/14 08:38:33;;;;;;;4.07;2.20;;;11.00;99.90;;;;;;4897944;29;20048;-77
2022/10/14 08:41:11;;;;;;;4.30;2.45;;;12.20;99.90;;;;;;4897970;29;20506;-77
2022/10/14 08:43:47;;;;;;;4.22;3.00;;;10.90;99.90;;;;;;4897656;29;20352;-77
2022/10/14 08:46:26;;;;;;;4.35;2.83;;;11.00;99.90;;;;;;4897666;29;20151;-77
2022/10/14 08:49:24;;;;;;;4.90;3.40;;;11.30;99.90;;;;;;4897269;29;20510;-77
2022/10/14 08:51:56;;;;;;;5.22;3.33;;;12.00;99.90;;;;;;4896745;29;20223;-77
2022/10/14 08:54:38;;;;;;;4.93;3.20;;;11.80;99.90;;;;;;4895533;29;20053;-77
2022/10/14 08:57:05;;;;;;;5.22;3.03;;;11.60;99.90;;;;;;4897675;29;20079;-77
2022/10/14 08:59:35;;;;;;;4.13;2.88;;;11.10;99.90;;;;;;4878520;29;20049;-77
2022/10/14 09:02:13;;;;;;;4.40;3.20;;;12.00;99.90;;;;;;4878736;29;20060;-77
2022/10/14 09:04:39;;;;;;;4.18;2.97;;;12.20;99.90;;;;;;4894219;29;20504;-76
2022/10/14 09:07:05;;;;;;;5.75;3.33;;;12.70;99.90;;;;;;4879447;29;20152;-77
2022/10/14 09:09:36;;;;;;;5.03;3.40;;;11.60;99.90;;;;;;4897163;29;20071;-76
2022/10/14 09:12:08;;;;;;;5.30;3.30;;;12.70;99.90;;;;;;4897460;29;20432;-77
2022/10/14 09:14:45;;;;;;;4.68;3.38;;;12.30;99.90;;;;;;4896736;29;20445;-77
2022/10/14 09:17:20;;;;;;;7.55;4.82;;;12.70;99.90;;;;;;4897143;29;20088;-77
2022/10/14 09:20:21;;;;;;;6.57;4.93;;;11.60;99.90;;;;;;4896055;29;20136;-77
2022/10/14 09:23:01;;;;;;;7.65;5.18;;;11.70;99.90;;;;;;4896822;29;20084;-77
2022/10/14 09:25:31;;;;;;;8.30;5.65;;;11.50;99.90;;;;;;4880073;29;20060;-77
2022/10/14 09:27:57;;;;;;;7.38;5.50;;;12.30;99.90;;;;;;4896888;29;20050;-77
2022/10/14 09:30:22;;;;;;;5.90;4.43;;;12.50;99.90;;;;;;4893142;29;20053;-77
2022/10/14 09:32:53;;;;;;;6.38;4.68;;;11.30;99.90;;;;;;4896764;29;20052;-77
2022/10/14 09:35:24;;;;;;;6.45;4.47;;;11.30;99.90;;;;;;4880937;29;20489;-76
2022/10/14 09:37:50;;;;;;;5.03;4.00;;;12.60;99.90;;;;;;4896966;29;20516;-77
2022/10/14 09:40:38;;;;;;;5.72;4.55;;;12.60;99.90;;;;;;4895909;29;20063;-77
2022/10/14 09:43:06;;;;;;;;;;;12.50;99.90;;;;;;4896240;29;20088;-77
2022/10/14 09:45:52;;;;;;;7.90;4.85;;;11.80;99.90;;;;;;4896483;29;19927;-77
2022/10/14 09:48:22;;;;;;;7.00;4.72;;;12.10;99.90;;;;;;4892695;29;20057;-77
2022/10/14 09:50:50;;;;;;;6.97;5.20;;;11.60;99.90;;;;;;4896568;29;20047;-77
2022/10/14 09:53:44;;;;;;;7.15;5.38;;;12.60;99.90;;;;;;4896297;29;20051;-77
2022/10/14 09:56:10;;;;;;;7.47;5.47;;;12.60;99.90;;;;;;4870818;29;20061;-76
2022/10/14 09:58:46;;;;;;;8.95;6.82;;;12.20;99.90;;;;;;4877553;29;20044;-77
2022/10/14 10:01:40;;;;;;;10.27;7.00;;;11.90;99.90;;;;;;4895153;29;20048;-77
2022/10/14 10:04:31;;;;;;;9.80;6.85;;;12.00;99.90;;;;;;4892367;29;20063;-77
2022/10/14 10:07:00;;;;;;;9.18;5.95;;;12.90;99.90;;;;;;4895985;29;20498;-76
2022/10/14 10:09:26;;;;;;;7.05;5.22;;;11.90;99.90;;;;;;4892090;29;20062;-77
2022/10/14 10:11:52;;;;;;;6.65;5.20;;;12.00;99.90;;;;;;4888950;29;20059;-77
2022/10/14 10:14:31;;;;;;;5.97;4.90;;;12.80;99.90;;;;;;4876380;29;20484;-77
2022/10/14 10:17:06;;;;;;;5.95;4.60;;;13.10;99.90;;;;;;4895096;29;20045;-77
2022/10/14 10:19:40;;;;;;;5.82;4.28;;;12.40;99.90;;;;;;4889259;29;20055;-77
2022/10/14 10:22:18;;;;;;;6.43;4.80;;;13.00;99.90;;;;;;4892328;29;20051;-77
2022/10/14 10:24:48;;;;;;;5.25;3.95;;;12.10;99.90;;;;;;4889221;29;20543;-77
2022/10/14 10:27:23;;;;;;;6.97;4.85;;;13.40;99.90;;;;;;4880036;29;20052;-77
2022/10/14 10:29:48;;;;;;;5.60;4.10;;;12.60;99.90;;;;;;4893098;29;20488;-77
2022/10/14 10:32:14;;;;;;;4.82;3.80;;;12.20;99.90;;;;;;4895552;29;20052;-77
2022/10/14 10:34:58;;;;;;;5.30;3.75;;;12.40;99.90;;;;;;4893388;29;20049;-77
2022/10/14 10:37:27;;;;;;;4.85;3.67;;;13.10;99.90;;;;;;4881680;29;20362;-77
2022/10/14 10:40:08;;;;;;;3.83;3.17;;;13.50;99.90;;;;;;4890285;29;20049;-77
2022/10/14 10:42:53;;;;;;;5.95;4.60;;;12.70;99.90;;;;;;4890146;29;20052;-77
2022/10/14 10:45:48;;;;;;;5.80;4.55;;;13.50;99.90;;;;;;4892197;29;20049;-76
2022/10/14 10:48:22;;;;;;;5.85;4.40;;;13.60;99.90;;;;;;4887714;29;20045;-76
2022/10/14 10:50:57;;;;;;;4.75;3.55;;;13.80;99.90;;;;;;4893153;29;20123;-76
2022/10/14 10:53:59;;;;;;;3.97;3.00;;;12.70;99.90;;;;;;4892670;29;20072;-76
2022/10/14 10:56:38;;;;;;;5.22;3.90;;;12.70;99.90;;;;;;4894110;29;20059;-75
2022/10/14 10:59:43;;;;;;;5.90;4.15;;;13.10;99.90;;;;;;4894486;29;20079;-76
2022/10/14 11:02:43;;;;;;;6.40;5.00;;;13.40;99.90;;;;;;4892211;29;20052;-75
2022/10/14 11:05:12;;;;;;;6.03;4.40;;;12.70;99.90;;;;;;4892154;29;20040;-76
2022/10/14 11:13:55;;;;;;;4.53;3.55;;;12.90;99.90;;;;;;4888761;29;20077;-76
2022/10/14 11:16:37;;;;;;;4.45;3.35;;;13.70;99.90;;;;;;4892164;29;20433;-76
2022/10/14 11:19:36;;;;;;;4.72;3.65;;;12.60;99.90;;;;;;4883582;29;20049;-76
2022/10/14 11:22:27;;;;;;;5.50;3.67;;;12.60;99.90;;;;;;4861948;29;20066;-76
2022/10/14 11:25:15;;;;;;;6.10;4.30;;;12.70;99.90;;;;;;4880929;29;20071;-76
2022/10/14 11:28:09;;;;;;;4.82;3.50;;;12.70;99.90;;;;;;4875255;29;20127;-76
2022/10/14 11:30:53;;;;;;;3.53;3.00;;;13.10;99.90;;;;;;4890911;29;20049;-75
2022/10/14 11:33:28;;;;;;;3.53;2.65;;;13.10;99.90;;;;;;4895541;29;20048;-75
2022/10/14 11:36:06;;;;;;;2.75;2.10;;;13.20;99.90;;;;;;4895282;29;20044;-75
2022/10/14 11:39:06;;;;;;;3.60;2.70;;;13.50;99.90;;;;;;4896133;29;20100;-76
2022/10/14 11:41:50;;;;;;;4.65;3.33;;;12.70;99.90;;;;;;4877707;29;20059;-75
2022/10/14 11:44:25;;;;;;;3.58;2.70;;;12.80;99.90;;;;;;4893855;29;20051;-76
2022/10/14 11:46:55;;;;;;;4.03;2.85;;;13.80;99.90;;;;;;4894490;29;20048;-76
2022/10/14 11:49:27;;;;;;;2.20;1.73;;;13.10;99.90;;;;;;4895146;29;20377;-76
2022/10/14 11:52:20;;;;;;;2.45;1.90;;;12.80;99.90;;;;;;4878919;29;20601;-76
2022/10/14 11:55:03;;;;;;;2.05;1.63;;;12.80;99.90;;;;;;4894654;29;20114;-76
2022/10/14 11:57:52;;;;;;;2.15;1.73;;;13.40;99.90;;;;;;4896167;29;20040;-76
2022/10/14 12:00:20;;;;;;;2.58;1.90;;;13.80;99.90;;;;;;4893754;29;20052;-76
2022/10/14 12:03:08;;;;;;;2.22;1.80;;;12.90;99.90;;;;;;4894664;29;20086;-76
2022/10/14 12:05:46;;;;;;;2.58;1.77;;;13.10;99.90;;;;;;4892991;29;20182;-76
2022/10/14 12:08:29;;;;;;;2.97;2.00;;;12.90;99.90;;;;;;4897346;29;20050;-76
2022/10/14 12:11:01;;;;;;;3.13;2.30;;;14.10;99.90;;;;;;4897020;29;20059;-76
2022/10/14 12:13:51;;;;;;;4.10;1.98;;;13.00;99.90;;;;;;4897114;29;20048;-76
2022/10/14 12:16:19;;;;;;;3.35;2.10;;;12.70;99.90;;;;;;4897391;29;20040;-76
2022/10/14 12:18:50;;;;;;;3.42;2.25;;;13.00;99.90;;;;;;4896913;29;20048;-76
2022/10/14 12:21:34;;;;;;;3.13;2.05;;;14.00;99.90;;;;;;4895034;29;20076;-76
2022/10/14 12:24:07;;;;;;;2.53;1.90;;;12.70;99.90;;;;;;4896322;29;20498;-78
2022/10/14 12:26:41;;;;;;;3.33;2.25;;;13.80;99.90;;;;;;4898670;29;20399;-76
2022/10/14 12:29:16;;;;;;;3.22;2.40;;;12.90;99.90;;;;;;4897425;29;20075;-76
2022/10/14 12:31:48;;;;;;;3.50;2.80;;;13.00;99.90;;;;;;4897901;29;20056;-76
2022/10/14 12:34:24;;;;;;;3.47;2.88;;;13.70;99.90;;;;;;4914452;29;20059;-77
2022/10/14 12:36:50;;;;;;;3.78;2.85;;;12.80;99.90;;;;;;4896212;29;20040;-76
2022/10/14 12:39:15;;;;;;;4.30;3.08;;;13.10;99.90;;;;;;4896997;29;20074;-76
2022/10/14 12:41:47;;;;;;;3.50;2.70;;;13.00;99.90;;;;;;4896820;29;20096;-77
2022/10/14 12:44:17;;;;;;;2.72;2.10;;;12.70;99.90;;;;;;4896574;29;20067;-76
2022/10/14 12:46:48;;;;;;;3.97;2.67;;;12.70;99.90;;;;;;4880350;29;20048;-76
2022/10/14 12:49:28;;;;;;;3.10;2.00;;;14.00;99.90;;;;;;4896629;29;20539;-76
2022/10/14 12:52:04;;;;;;;3.33;2.38;;;12.70;99.90;;;;;;4895736;29;20095;-76
2022/10/14 12:54:31;;;;;;;2.25;1.85;;;12.80;99.90;;;;;;4881239;29;20415;-76
2022/10/14 12:57:03;;;;;;;2.35;1.67;;;13.60;99.90;;;;;;4881477;29;20056;-76
2022/10/14 12:59:37;;;;;;;3.60;2.13;;;12.70;99.90;;;;;;4896697;29;20103;-76
2022/10/14 13:02:31;;;;;;;1.95;1.70;;;12.80;99.90;;;;;;4894644;29;20124;-75
2022/10/14 13:05:00;;;;;;;2.53;2.08;;;13.20;99.90;;;;;;4896016;29;20051;-75
2022/10/14 13:07:30;;;;;;;2.22;1.75;;;12.80;99.90;;;;;;4908031;29;20048;-76
2022/10/14 13:10:19;;;;;;;2.97;2.20;;;13.10;99.90;;;;;;4914737;29;20059;-75
2022/10/14 13:12:45;;;;;;;2.97;2.50;;;14.00;99.90;;;;;;4877790;29;20047;-76